sensor_id;sensor_type;location;lat;lon;timestamp;pressure;altitude;pressure_sealevel;temperature;humidity
49194;BME280;35029;50.804;12.866;2023-03-14T00:01:54;95593.34;;;10.12;100.00
49194;BME280;35029;50.804;12.866;2023-03-14T00:04:20;95592.94;;;10.03;100.00
49194;BME280;35029;50.804;12.866;2023-03-14T00:06:45;95575.22;;;10.04;100.00
49194;BME280;35029;50.804;12.866;2023-03-14T00:09:13;95551.59;;;9.97;100.00
49194;BME280;35029;50.804;12.866;2023-03-14T00:11:38;95553.63;;;9.90;100.00
49194;BME280;35029;50.804;12.866;2023-03-14T00:14:04;95581.75;;;9.96;100.00
49194;BME280;35029;50.804;12.866;2023-03-14T00:16:30;95564.50;;;9.93;100.00
49194;BME280;35029;50.804;12.866;2023-03-14T00:18:55;95560.91;;;9.82;100.00
49194;BME280;35029;50.804;12.866;2023-03-14T00:21:21;95578.16;;;9.85;100.00
49194;BME280;35029;50.804;12.866;2023-03-14T00:23:46;95586.50;;;9.77;100.00
49194;BME280;35029;50.804;12.866;2023-03-14T00:26:14;95561.41;;;9.62;100.00
49194;BME280;35029;50.804;12.866;2023-03-14T00:28:41;95572.41;;;9.71;100.00
49194;BME280;35029;50.804;12.866;2023-03-14T00:31:10;95551.13;;;9.44;100.00
49194;BME280;35029;50.804;12.866;2023-03-14T00:33:38;95602.53;;;9.70;100.00
49194;BME280;35029;50.804;12.866;2023-03-14T00:36:06;95586.47;;;9.55;100.00
49194;BME280;35029;50.804;12.866;2023-03-14T00:38:34;95617.63;;;9.70;100.00
49194;BME280;35029;50.804;12.866;2023-03-14T00:41:04;95615.63;;;9.60;100.00
49194;BME280;35029;50.804;12.866;2023-03-14T00:43:30;95629.97;;;9.64;100.00
49194;BME280;35029;50.804;12.866;2023-03-14T00:45:56;95640.31;;;9.66;100.00
49194;BME280;35029;50.804;12.866;2023-03-14T00:48:25;95650.03;;;9.60;100.00
49194;BME280;35029;50.804;12.866;2023-03-14T00:50:51;95628.44;;;9.51;100.00
49194;BME280;35029;50.804;12.866;2023-03-14T00:53:17;95639.44;;;9.60;100.00
49194;BME280;35029;50.804;12.866;2023-03-14T00:55:44;95628.88;;;9.60;100.00
49194;BME280;35029;50.804;12.866;2023-03-14T00:58:12;95622.34;;;9.68;100.00
49194;BME280;35029;50.804;12.866;2023-03-14T01:00:39;95630.53;;;9.66;100.00
49194;BME280;35029;50.804;12.866;2023-03-14T01:03:05;95625.72;;;9.63;100.00
49194;BME280;35029;50.804;12.866;2023-03-14T01:05:31;95636.56;;;9.61;100.00
49194;BME280;35029;50.804;12.866;2023-03-14T01:07:57;95645.13;;;9.52;100.00
49194;BME280;35029;50.804;12.866;2023-03-14T01:10:23;95645.59;;;9.48;100.00
49194;BME280;35029;50.804;12.866;2023-03-14T01:12:49;95662.91;;;9.56;100.00
49194;BME280;35029;50.804;12.866;2023-03-14T01:15:14;95661.88;;;9.57;100.00
49194;BME280;35029;50.804;12.866;2023-03-14T01:17:40;95667.47;;;9.61;100.00
49194;BME280;35029;50.804;12.866;2023-03-14T01:20:08;95672.06;;;9.66;100.00
49194;BME280;35029;50.804;12.866;2023-03-14T01:22:35;95676.28;;;9.67;100.00
49194;BME280;35029;50.804;12.866;2023-03-14T01:25:02;95666.78;;;9.66;100.00
49194;BME280;35029;50.804;12.866;2023-03-14T01:27:29;95649.44;;;9.58;100.00
49194;BME280;35029;50.804;12.866;2023-03-14T01:29:55;95665.66;;;9.61;100.00
49194;BME280;35029;50.804;12.866;2023-03-14T01:32:20;95668.28;;;9.61;100.00
49194;BME280;35029;50.804;12.866;2023-03-14T01:34:46;95640.53;;;9.47;100.00
49194;BME280;35029;50.804;12.866;2023-03-14T01:37:12;95653.38;;;9.55;100.00
49194;BME280;35029;50.804;12.866;2023-03-14T01:39:38;95640.72;;;9.57;100.00
49194;BME280;35029;50.804;12.866;2023-03-14T01:42:05;95648.78;;;9.68;100.00
49194;BME280;35029;50.804;12.866;2023-03-14T01:44:53;95646.16;;;9.68;100.00
49194;BME280;35029;50.804;12.866;2023-03-14T01:47:20;95647.19;;;9.67;100.00
49194;BME280;35029;50.804;12.866;2023-03-14T01:49:49;95647.03;;;9.73;100.00
49194;BME280;35029;50.804;12.866;2023-03-14T01:52:21;95646.97;;;9.68;100.00
49194;BME280;35029;50.804;12.866;2023-03-14T01:54:52;95646.97;;;9.68;100.00
49194;BME280;35029;50.804;12.866;2023-03-14T01:57:25;95644.38;;;9.73;100.00
49194;BME280;35029;50.804;12.866;2023-03-14T02:00:05;95643.81;;;9.88;100.00
49194;BME280;35029;50.804;12.866;2023-03-14T02:02:40;95643.59;;;9.90;100.00
49194;BME280;35029;50.804;12.866;2023-03-14T02:05:08;95635.41;;;9.91;100.00
49194;BME280;35029;50.804;12.866;2023-03-14T02:07:53;95632.03;;;9.96;100.00
49194;BME280;35029;50.804;12.866;2023-03-14T02:10:25;95622.47;;;9.95;100.00
49194;BME280;35029;50.804;12.866;2023-03-14T02:12:55;95629.75;;;10.05;100.00
49194;BME280;35029;50.804;12.866;2023-03-14T02:15:38;95614.03;;;10.15;100.00
49194;BME280;35029;50.804;12.866;2023-03-14T02:18:12;95616.50;;;10.05;100.00
49194;BME280;35029;50.804;12.866;2023-03-14T02:23:39;95593.19;;;10.02;100.00
49194;BME280;35029;50.804;12.866;2023-03-14T02:26:15;95570.63;;;10.16;99.54
49194;BME280;35029;50.804;12.866;2023-03-14T02:28:43;95588.91;;;10.18;100.00
49194;BME280;35029;50.804;12.866;2023-03-14T02:31:09;95591.72;;;10.11;99.37
49194;BME280;35029;50.804;12.866;2023-03-14T02:33:37;95596.66;;;10.24;99.16
49194;BME280;35029;50.804;12.866;2023-03-14T02:36:09;95580.81;;;10.07;100.00
49194;BME280;35029;50.804;12.866;2023-03-14T02:41:14;95591.41;;;10.07;100.00
49194;BME280;35029;50.804;12.866;2023-03-14T02:43:46;95571.22;;;10.01;99.45
49194;BME280;35029;50.804;12.866;2023-03-14T02:46:18;95573.94;;;10.06;99.95
49194;BME280;35029;50.804;12.866;2023-03-14T02:48:54;95566.72;;;10.02;99.64
49194;BME280;35029;50.804;12.866;2023-03-14T02:51:22;95559.53;;;9.97;100.00
49194;BME280;35029;50.804;12.866;2023-03-14T02:53:49;95545.44;;;9.91;100.00
49194;BME280;35029;50.804;12.866;2023-03-14T02:56:15;95547.75;;;9.88;100.00
49194;BME280;35029;50.804;12.866;2023-03-14T02:58:40;95544.31;;;9.87;100.00
49194;BME280;35029;50.804;12.866;2023-03-14T03:01:26;95556.19;;;9.85;100.00
49194;BME280;35029;50.804;12.866;2023-03-14T03:03:52;95559.88;;;9.84;99.70
49194;BME280;35029;50.804;12.866;2023-03-14T03:06:19;95563.38;;;9.89;100.00
49194;BME280;35029;50.804;12.866;2023-03-14T03:08:44;95555.25;;;9.74;100.00
49194;BME280;35029;50.804;12.866;2023-03-14T03:11:10;95566.00;;;9.67;100.00
49194;BME280;35029;50.804;12.866;2023-03-14T03:13:36;95559.19;;;9.71;100.00
49194;BME280;35029;50.804;12.866;2023-03-14T03:16:03;95551.75;;;9.51;100.00
49194;BME280;35029;50.804;12.866;2023-03-14T03:18:29;95565.44;;;9.65;100.00
49194;BME280;35029;50.804;12.866;2023-03-14T03:20:55;95573.19;;;9.72;99.07
49194;BME280;35029;50.804;12.866;2023-03-14T03:23:21;95553.09;;;9.54;100.00
49194;BME280;35029;50.804;12.866;2023-03-14T03:25:51;95589.31;;;9.70;100.00
49194;BME280;35029;50.804;12.866;2023-03-14T03:28:19;95580.19;;;9.78;98.95
49194;BME280;35029;50.804;12.866;2023-03-14T03:30:45;95588.28;;;9.71;99.74
49194;BME280;35029;50.804;12.866;2023-03-14T03:33:12;95578.97;;;9.69;100.00
49194;BME280;35029;50.804;12.866;2023-03-14T03:35:55;95572.25;;;9.61;99.61
49194;BME280;35029;50.804;12.866;2023-03-14T03:38:27;95556.78;;;9.53;99.67
49194;BME280;35029;50.804;12.866;2023-03-14T03:40:54;95528.22;;;9.33;99.96
49194;BME280;35029;50.804;12.866;2023-03-14T03:43:23;95558.00;;;9.45;99.50
49194;BME280;35029;50.804;12.866;2023-03-14T03:45:49;95548.06;;;9.35;100.00
49194;BME280;35029;50.804;12.866;2023-03-14T03:48:14;95551.53;;;9.36;99.55
49194;BME280;35029;50.804;12.866;2023-03-14T03:50:45;95554.66;;;9.33;99.93
49194;BME280;35029;50.804;12.866;2023-03-14T03:53:11;95543.50;;;9.30;100.00
49194;BME280;35029;50.804;12.866;2023-03-14T03:55:37;95549.59;;;9.31;100.00
49194;BME280;35029;50.804;12.866;2023-03-14T03:58:02;95551.59;;;9.24;100.00
49194;BME280;35029;50.804;12.866;2023-03-14T04:00:28;95528.06;;;9.05;100.00
49194;BME280;35029;50.804;12.866;2023-03-14T04:02:54;95564.91;;;9.29;100.00
49194;BME280;35029;50.804;12.866;2023-03-14T04:05:19;95562.16;;;9.24;100.00
49194;BME280;35029;50.804;12.866;2023-03-14T04:07:52;95569.41;;;9.28;100.00
49194;BME280;35029;50.804;12.866;2023-03-14T04:10:22;95550.78;;;9.06;100.00
49194;BME280;35029;50.804;12.866;2023-03-14T04:13:02;95544.06;;;8.99;100.00
49194;BME280;35029;50.804;12.866;2023-03-14T04:15:30;95575.00;;;9.15;100.00
49194;BME280;35029;50.804;12.866;2023-03-14T04:17:58;95579.00;;;9.18;100.00
49194;BME280;35029;50.804;12.866;2023-03-14T04:20:24;95580.69;;;9.24;100.00
49194;BME280;35029;50.804;12.866;2023-03-14T04:22:51;95575.63;;;9.22;100.00
49194;BME280;35029;50.804;12.866;2023-03-14T04:25:16;95591.25;;;9.24;100.00
49194;BME280;35029;50.804;12.866;2023-03-14T04:27:48;95578.28;;;9.22;100.00
49194;BME280;35029;50.804;12.866;2023-03-14T04:30:21;95570.09;;;9.24;100.00
49194;BME280;35029;50.804;12.866;2023-03-14T04:32:52;95532.69;;;8.98;100.00
49194;BME280;35029;50.804;12.866;2023-03-14T04:35:19;95578.63;;;9.26;100.00
49194;BME280;35029;50.804;12.866;2023-03-14T04:37:44;95548.41;;;9.22;100.00
49194;BME280;35029;50.804;12.866;2023-03-14T04:40:15;95545.38;;;9.30;100.00
49194;BME280;35029;50.804;12.866;2023-03-14T04:42:41;95534.72;;;9.25;100.00
49194;BME280;35029;50.804;12.866;2023-03-14T04:45:08;95546.47;;;9.17;100.00
49194;BME280;35029;50.804;12.866;2023-03-14T04:47:34;95508.59;;;8.94;100.00
49194;BME280;35029;50.804;12.866;2023-03-14T04:50:00;95519.06;;;9.06;100.00
49194;BME280;35029;50.804;12.866;2023-03-14T04:52:26;95539.91;;;9.20;100.00
49194;BME280;35029;50.804;12.866;2023-03-14T04:54:51;95545.81;;;9.27;100.00
49194;BME280;35029;50.804;12.866;2023-03-14T04:57:18;95559.28;;;9.25;100.00
49194;BME280;35029;50.804;12.866;2023-03-14T04:59:45;95527.81;;;9.24;99.28
49194;BME280;35029;50.804;12.866;2023-03-14T05:02:24;95542.56;;;9.37;98.33
49194;BME280;35029;50.804;12.866;2023-03-14T05:05:19;95544.09;;;9.33;99.71
49194;BME280;35029;50.804;12.866;2023-03-14T05:08:05;95529.66;;;9.23;99.92
49194;BME280;35029;50.804;12.866;2023-03-14T05:10:52;95516.53;;;9.11;100.00
49194;BME280;35029;50.804;12.866;2023-03-14T05:13:39;95530.53;;;9.29;99.57
49194;BME280;35029;50.804;12.866;2023-03-14T05:16:23;95523.34;;;9.24;100.00
49194;BME280;35029;50.804;12.866;2023-03-14T05:19:03;95513.81;;;9.23;100.00
49194;BME280;35029;50.804;12.866;2023-03-14T05:21:57;95508.09;;;9.14;100.00
49194;BME280;35029;50.804;12.866;2023-03-14T05:24:34;95508.09;;;9.14;100.00
49194;BME280;35029;50.804;12.866;2023-03-14T05:27:00;95517.63;;;9.16;100.00
49194;BME280;35029;50.804;12.866;2023-03-14T05:29:38;95498.25;;;9.10;99.69
49194;BME280;35029;50.804;12.866;2023-03-14T05:32:21;95510.34;;;9.23;98.83
49194;BME280;35029;50.804;12.866;2023-03-14T05:35:22;95506.91;;;9.22;100.00
49194;BME280;35029;50.804;12.866;2023-03-14T05:38:23;95517.00;;;9.25;100.00
49194;BME280;35029;50.804;12.866;2023-03-14T05:41:21;95502.81;;;9.14;99.96
49194;BME280;35029;50.804;12.866;2023-03-14T05:44:13;95504.84;;;9.24;99.67
49194;BME280;35029;50.804;12.866;2023-03-14T05:47:00;95502.66;;;9.21;99.39
49194;BME280;35029;50.804;12.866;2023-03-14T05:49:43;95499.06;;;9.27;99.54
49194;BME280;35029;50.804;12.866;2023-03-14T05:52:21;95499.06;;;9.27;99.98
49194;BME280;35029;50.804;12.866;2023-03-14T05:55:05;95480.63;;;9.16;100.00
49194;BME280;35029;50.804;12.866;2023-03-14T05:57:49;95511.00;;;9.30;100.00
49194;BME280;35029;50.804;12.866;2023-03-14T06:00:26;95511.53;;;9.32;99.94
49194;BME280;35029;50.804;12.866;2023-03-14T06:03:04;95498.06;;;9.34;100.00
49194;BME280;35029;50.804;12.866;2023-03-14T06:05:33;95483.59;;;9.19;99.44
49194;BME280;35029;50.804;12.866;2023-03-14T06:08:00;95490.88;;;9.29;99.73
49194;BME280;35029;50.804;12.866;2023-03-14T06:10:29;95494.44;;;9.18;99.29
49194;BME280;35029;50.804;12.866;2023-03-14T06:12:55;95515.22;;;9.31;99.70
49194;BME280;35029;50.804;12.866;2023-03-14T06:15:21;95531.91;;;9.32;100.00
49194;BME280;35029;50.804;12.866;2023-03-14T06:17:49;95515.00;;;9.33;99.38
49194;BME280;35029;50.804;12.866;2023-03-14T06:20:17;95530.63;;;9.34;98.37
49194;BME280;35029;50.804;12.866;2023-03-14T06:22:43;95527.00;;;9.40;98.57
49194;BME280;35029;50.804;12.866;2023-03-14T06:25:11;95535.25;;;9.44;99.07
49194;BME280;35029;50.804;12.866;2023-03-14T06:27:37;95532.84;;;9.42;98.62
49194;BME280;35029;50.804;12.866;2023-03-14T06:30:03;95534.22;;;9.45;99.41
49194;BME280;35029;50.804;12.866;2023-03-14T06:32:31;95520.66;;;9.41;99.86
49194;BME280;35029;50.804;12.866;2023-03-14T06:35:02;95518.75;;;9.37;100.00
49194;BME280;35029;50.804;12.866;2023-03-14T06:37:32;95516.91;;;9.37;100.00
49194;BME280;35029;50.804;12.866;2023-03-14T06:39:58;95502.81;;;9.32;98.73
49194;BME280;35029;50.804;12.866;2023-03-14T06:42:45;95514.88;;;9.44;98.61
49194;BME280;35029;50.804;12.866;2023-03-14T06:45:13;95509.94;;;9.48;98.21
49194;BME280;35029;50.804;12.866;2023-03-14T06:47:39;95486.94;;;9.32;98.59
49194;BME280;35029;50.804;12.866;2023-03-14T06:50:07;95517.38;;;9.51;98.02
49194;BME280;35029;50.804;12.866;2023-03-14T06:52:33;95507.28;;;9.48;98.16
49194;BME280;35029;50.804;12.866;2023-03-14T06:54:59;95517.78;;;9.60;98.69
49194;BME280;35029;50.804;12.866;2023-03-14T06:57:26;95519.31;;;9.56;97.93
49194;BME280;35029;50.804;12.866;2023-03-14T06:59:52;95512.66;;;9.53;98.46
49194;BME280;35029;50.804;12.866;2023-03-14T07:02:17;95520.81;;;9.52;98.01
49194;BME280;35029;50.804;12.866;2023-03-14T07:04:44;95496.47;;;9.50;97.38
49194;BME280;35029;50.804;12.866;2023-03-14T07:07:10;95519.34;;;9.61;96.99
49194;BME280;35029;50.804;12.866;2023-03-14T07:09:37;95515.03;;;9.55;97.69
49194;BME280;35029;50.804;12.866;2023-03-14T07:12:03;95529.84;;;9.73;98.78
49194;BME280;35029;50.804;12.866;2023-03-14T07:14:30;95539.13;;;9.75;99.26
49194;BME280;35029;50.804;12.866;2023-03-14T07:16:56;95545.94;;;9.71;96.27
49194;BME280;35029;50.804;12.866;2023-03-14T07:19:22;95537.63;;;9.62;95.77
49194;BME280;35029;50.804;12.866;2023-03-14T07:21:48;95540.03;;;9.64;94.89
49194;BME280;35029;50.804;12.866;2023-03-14T07:24:18;95527.78;;;9.58;94.13
49194;BME280;35029;50.804;12.866;2023-03-14T07:26:44;95538.44;;;9.63;93.53
49194;BME280;35029;50.804;12.866;2023-03-14T07:29:09;95537.63;;;9.62;93.10
49194;BME280;35029;50.804;12.866;2023-03-14T07:31:36;95525.88;;;9.53;93.57
49194;BME280;35029;50.804;12.866;2023-03-14T07:34:02;95557.19;;;9.61;92.03
49194;BME280;35029;50.804;12.866;2023-03-14T07:36:32;95548.03;;;9.69;93.51
49194;BME280;35029;50.804;12.866;2023-03-14T07:39:01;95533.69;;;9.65;91.45
49194;BME280;35029;50.804;12.866;2023-03-14T07:41:37;95539.91;;;9.76;92.01
49194;BME280;35029;50.804;12.866;2023-03-14T07:44:25;95541.09;;;9.85;91.93
49194;BME280;35029;50.804;12.866;2023-03-14T07:46:51;95520.94;;;9.79;91.25
49194;BME280;35029;50.804;12.866;2023-03-14T07:49:17;95544.94;;;9.94;91.04
49194;BME280;35029;50.804;12.866;2023-03-14T07:51:43;95523.94;;;9.88;91.68
49194;BME280;35029;50.804;12.866;2023-03-14T07:54:12;95530.84;;;9.89;90.96
49194;BME280;35029;50.804;12.866;2023-03-14T07:56:37;95541.72;;;9.92;90.58
49194;BME280;35029;50.804;12.866;2023-03-14T07:59:03;95545.44;;;9.91;90.46
49194;BME280;35029;50.804;12.866;2023-03-14T08:01:29;95535.09;;;9.90;91.32
49194;BME280;35029;50.804;12.866;2023-03-14T08:03:54;95526.09;;;9.91;89.94
49194;BME280;35029;50.804;12.866;2023-03-14T08:06:20;95540.75;;;9.98;89.04
49194;BME280;35029;50.804;12.866;2023-03-14T08:08:46;95547.09;;;9.97;88.37
49194;BME280;35029;50.804;12.866;2023-03-14T08:11:11;95530.72;;;10.01;89.67
49194;BME280;35029;50.804;12.866;2023-03-14T08:13:37;95529.41;;;10.03;89.41
49194;BME280;35029;50.804;12.866;2023-03-14T08:16:04;95531.16;;;10.14;88.53
49194;BME280;35029;50.804;12.866;2023-03-14T08:18:29;95511.34;;;10.17;88.92
49194;BME280;35029;50.804;12.866;2023-03-14T08:20:55;95519.50;;;10.15;89.24
49194;BME280;35029;50.804;12.866;2023-03-14T08:23:21;95524.00;;;10.15;88.39
49194;BME280;35029;50.804;12.866;2023-03-14T08:25:50;95510.84;;;10.20;87.71
49194;BME280;35029;50.804;12.866;2023-03-14T08:28:17;95510.31;;;10.45;87.19
49194;BME280;35029;50.804;12.866;2023-03-14T08:30:42;95520.91;;;10.68;86.23
49194;BME280;35029;50.804;12.866;2023-03-14T08:33:08;95499.97;;;10.71;85.31
49194;BME280;35029;50.804;12.866;2023-03-14T08:35:33;95500.59;;;10.78;84.70
49194;BME280;35029;50.804;12.866;2023-03-14T08:37:59;95495.63;;;10.87;84.38
49194;BME280;35029;50.804;12.866;2023-03-14T08:40:24;95490.47;;;10.75;83.78
49194;BME280;35029;50.804;12.866;2023-03-14T08:42:50;95498.28;;;10.60;84.23
49194;BME280;35029;50.804;12.866;2023-03-14T08:45:16;95495.44;;;10.67;84.53
49194;BME280;35029;50.804;12.866;2023-03-14T08:47:45;95502.28;;;10.62;84.59
49194;BME280;35029;50.804;12.866;2023-03-14T08:50:11;95507.28;;;10.59;86.18
49194;BME280;35029;50.804;12.866;2023-03-14T08:52:38;95501.72;;;10.55;84.46
49194;BME280;35029;50.804;12.866;2023-03-14T08:55:06;95500.34;;;10.53;85.60
49194;BME280;35029;50.804;12.866;2023-03-14T08:57:32;95520.63;;;10.42;85.41
49194;BME280;35029;50.804;12.866;2023-03-14T08:59:58;95522.28;;;10.48;86.37
49194;BME280;35029;50.804;12.866;2023-03-14T09:02:25;95527.28;;;10.44;85.79
49194;BME280;35029;50.804;12.866;2023-03-14T09:04:51;95536.03;;;10.45;84.66
49194;BME280;35029;50.804;12.866;2023-03-14T09:07:17;95530.59;;;10.35;85.90
49194;BME280;35029;50.804;12.866;2023-03-14T09:09:43;95547.53;;;10.34;85.21
49194;BME280;35029;50.804;12.866;2023-03-14T09:12:09;95552.25;;;10.31;85.08
49194;BME280;35029;50.804;12.866;2023-03-14T09:14:34;95556.19;;;10.29;86.98
49194;BME280;35029;50.804;12.866;2023-03-14T09:17:00;95542.41;;;10.27;87.81
49194;BME280;35029;50.804;12.866;2023-03-14T09:19:28;95547.34;;;10.18;86.19
49194;BME280;35029;50.804;12.866;2023-03-14T09:21:54;95509.59;;;10.06;86.69
49194;BME280;35029;50.804;12.866;2023-03-14T09:24:20;95549.00;;;10.24;86.68
49194;BME280;35029;50.804;12.866;2023-03-14T09:26:45;95543.91;;;10.18;85.61
49194;BME280;35029;50.804;12.866;2023-03-14T09:29:11;95548.44;;;10.22;86.83
49194;BME280;35029;50.804;12.866;2023-03-14T09:31:37;95542.16;;;10.28;84.66
49194;BME280;35029;50.804;12.866;2023-03-14T09:34:03;95546.19;;;10.31;85.97
49194;BME280;35029;50.804;12.866;2023-03-14T09:36:29;95545.66;;;10.34;86.25
49194;BME280;35029;50.804;12.866;2023-03-14T09:38:55;95534.22;;;10.28;85.51
49194;BME280;35029;50.804;12.866;2023-03-14T09:41:33;95559.97;;;10.33;85.80
49194;BME280;35029;50.804;12.866;2023-03-14T09:44:14;95563.59;;;10.27;85.31
49194;BME280;35029;50.804;12.866;2023-03-14T09:46:44;95542.09;;;10.23;84.91
49194;BME280;35029;50.804;12.866;2023-03-14T09:49:33;95560.22;;;10.31;85.25
49194;BME280;35029;50.804;12.866;2023-03-14T09:52:03;95550.41;;;10.32;86.43
49194;BME280;35029;50.804;12.866;2023-03-14T09:54:38;95557.50;;;10.26;85.09
49194;BME280;35029;50.804;12.866;2023-03-14T09:57:05;95567.63;;;10.29;85.41
49194;BME280;35029;50.804;12.866;2023-03-14T09:59:34;95561.00;;;10.32;84.57
49194;BME280;35029;50.804;12.866;2023-03-14T10:02:13;95553.97;;;10.38;84.06
49194;BME280;35029;50.804;12.866;2023-03-14T10:04:40;95542.56;;;10.37;83.72
49194;BME280;35029;50.804;12.866;2023-03-14T10:07:21;95557.88;;;10.57;84.00
49194;BME280;35029;50.804;12.866;2023-03-14T10:09:50;95561.56;;;10.56;84.67
49194;BME280;35029;50.804;12.866;2023-03-14T10:12:17;95557.81;;;10.52;84.09
49194;BME280;35029;50.804;12.866;2023-03-14T10:14:49;95558.06;;;10.51;83.88
49194;BME280;35029;50.804;12.866;2023-03-14T10:17:17;95565.22;;;10.50;82.23
49194;BME280;35029;50.804;12.866;2023-03-14T10:19:55;95558.19;;;10.61;83.37
49194;BME280;35029;50.804;12.866;2023-03-14T10:22:21;95558.97;;;10.61;81.55
49194;BME280;35029;50.804;12.866;2023-03-14T10:24:54;95545.78;;;10.67;81.97
49194;BME280;35029;50.804;12.866;2023-03-14T10:27:40;95543.47;;;10.75;80.52
49194;BME280;35029;50.804;12.866;2023-03-14T10:30:14;95550.50;;;10.87;79.83
49194;BME280;35029;50.804;12.866;2023-03-14T10:32:52;95562.13;;;11.13;79.00
49194;BME280;35029;50.804;12.866;2023-03-14T10:35:20;95557.09;;;11.16;77.64
49194;BME280;35029;50.804;12.866;2023-03-14T10:38:00;95562.81;;;11.36;78.04
49194;BME280;35029;50.804;12.866;2023-03-14T10:40:37;95553.03;;;11.36;78.61
49194;BME280;35029;50.804;12.866;2023-03-14T10:43:05;95544.13;;;11.20;78.36
49194;BME280;35029;50.804;12.866;2023-03-14T10:45:36;95567.47;;;11.18;78.92
49194;BME280;35029;50.804;12.866;2023-03-14T10:50:49;95561.97;;;10.97;79.16
49194;BME280;35029;50.804;12.866;2023-03-14T10:53:17;95568.34;;;10.96;80.84
49194;BME280;35029;50.804;12.866;2023-03-14T10:55:44;95570.59;;;10.82;78.00
49194;BME280;35029;50.804;12.866;2023-03-14T11:00:52;95524.47;;;10.56;78.93
49194;BME280;35029;50.804;12.866;2023-03-14T11:03:19;95559.94;;;10.77;79.24
49194;BME280;35029;50.804;12.866;2023-03-14T11:11:18;95560.06;;;11.20;77.16
49194;BME280;35029;50.804;12.866;2023-03-14T11:21:59;95543.06;;;11.54;76.15
49194;BME280;35029;50.804;12.866;2023-03-14T11:27:44;95548.69;;;11.25;76.49
49194;BME280;35029;50.804;12.866;2023-03-14T11:30:49;95561.50;;;11.33;78.35
49194;BME280;35029;50.804;12.866;2023-03-14T11:33:21;95563.91;;;11.40;79.88
49194;BME280;35029;50.804;12.866;2023-03-14T11:36:03;95565.97;;;11.32;78.92
49194;BME280;35029;50.804;12.866;2023-03-14T11:38:38;95556.88;;;11.23;79.65
49194;BME280;35029;50.804;12.866;2023-03-14T11:41:10;95535.91;;;10.89;79.26
49194;BME280;35029;50.804;12.866;2023-03-14T11:43:38;95562.84;;;11.03;79.53
49194;BME280;35029;50.804;12.866;2023-03-14T11:46:14;95571.28;;;11.00;79.87
49194;BME280;35029;50.804;12.866;2023-03-14T11:51:36;95568.13;;;11.03;79.83
49194;BME280;35029;50.804;12.866;2023-03-14T11:54:19;95563.31;;;11.00;78.36
49194;BME280;35029;50.804;12.866;2023-03-14T11:56:50;95571.16;;;11.17;78.58
49194;BME280;35029;50.804;12.866;2023-03-14T12:10:40;95537.63;;;11.33;78.83
49194;BME280;35029;50.804;12.866;2023-03-14T12:13:11;95550.72;;;11.50;79.32
49194;BME280;35029;50.804;12.866;2023-03-14T12:15:38;95538.34;;;11.61;78.98
49194;BME280;35029;50.804;12.866;2023-03-14T12:18:38;95537.19;;;11.52;80.61
49194;BME280;35029;50.804;12.866;2023-03-14T12:21:08;95547.53;;;11.48;80.05
49194;BME280;35029;50.804;12.866;2023-03-14T12:23:54;95533.41;;;11.42;80.41
49194;BME280;35029;50.804;12.866;2023-03-14T12:26:26;95528.97;;;11.53;81.51
49194;BME280;35029;50.804;12.866;2023-03-14T12:36:50;95536.81;;;11.70;79.80
49194;BME280;35029;50.804;12.866;2023-03-14T12:49:44;95540.28;;;11.33;80.15
49194;BME280;35029;50.804;12.866;2023-03-14T12:53:00;95542.31;;;11.26;80.92
49194;BME280;35029;50.804;12.866;2023-03-14T12:55:43;95519.94;;;11.11;80.45
49194;BME280;35029;50.804;12.866;2023-03-14T12:58:31;95522.13;;;11.20;81.27
49194;BME280;35029;50.804;12.866;2023-03-14T13:01:03;95526.84;;;11.12;81.82
49194;BME280;35029;50.804;12.866;2023-03-14T13:03:50;95519.47;;;11.20;81.69
49194;BME280;35029;50.804;12.866;2023-03-14T13:12:14;95510.97;;;11.18;81.29
49194;BME280;35029;50.804;12.866;2023-03-14T13:14:47;95496.75;;;11.29;81.46
49194;BME280;35029;50.804;12.866;2023-03-14T13:17:15;95493.03;;;11.30;80.73
49194;BME280;35029;50.804;12.866;2023-03-14T13:19:44;95467.09;;;11.37;80.09
49194;BME280;35029;50.804;12.866;2023-03-14T13:22:21;95499.31;;;11.56;79.06
49194;BME280;35029;50.804;12.866;2023-03-14T13:24:47;95495.31;;;11.59;79.65
49194;BME280;35029;50.804;12.866;2023-03-14T13:27:20;95485.47;;;12.02;78.41
49194;BME280;35029;50.804;12.866;2023-03-14T13:29:50;95472.59;;;11.73;77.81
49194;BME280;35029;50.804;12.866;2023-03-14T13:32:20;95452.97;;;11.84;77.02
49194;BME280;35029;50.804;12.866;2023-03-14T13:34:46;95484.41;;;11.98;77.70
49194;BME280;35029;50.804;12.866;2023-03-14T13:37:21;95478.63;;;12.16;76.96
49194;BME280;35029;50.804;12.866;2023-03-14T13:39:55;95481.81;;;12.13;77.28
49194;BME280;35029;50.804;12.866;2023-03-14T13:42:24;95475.25;;;12.52;76.07
49194;BME280;35029;50.804;12.866;2023-03-14T13:44:53;95474.22;;;12.84;74.96
49194;BME280;35029;50.804;12.866;2023-03-14T13:47:21;95483.78;;;12.64;75.37
49194;BME280;35029;50.804;12.866;2023-03-14T13:50:04;95472.63;;;12.73;73.99
49194;BME280;35029;50.804;12.866;2023-03-14T13:52:37;95488.28;;;12.54;73.51
49194;BME280;35029;50.804;12.866;2023-03-14T13:55:06;95472.50;;;12.11;74.32
49194;BME280;35029;50.804;12.866;2023-03-14T13:57:49;95481.53;;;12.10;75.31
49194;BME280;35029;50.804;12.866;2023-03-14T14:00:24;95478.91;;;12.15;76.66
49194;BME280;35029;50.804;12.866;2023-03-14T14:02:57;95477.28;;;12.09;76.81
49194;BME280;35029;50.804;12.866;2023-03-14T14:05:28;95490.03;;;12.07;76.99
49194;BME280;35029;50.804;12.866;2023-03-14T14:07:54;95466.84;;;11.92;76.77
49194;BME280;35029;50.804;12.866;2023-03-14T14:10:21;95475.59;;;11.92;77.75
49194;BME280;35029;50.804;12.866;2023-03-14T14:13:01;95462.03;;;12.83;74.70
49194;BME280;35029;50.804;12.866;2023-03-14T14:15:30;95459.06;;;13.00;70.08
49194;BME280;35029;50.804;12.866;2023-03-14T14:18:02;95463.31;;;12.91;69.88